createdAt,value
2017-09-20T02:53:11.988Z,4.30
2017-09-20T06:16:25.669Z,3.20
2017-09-20T06:18:57.735Z,2.92
2017-09-20T06:21:26.676Z,2.78
2017-09-20T06:23:55.000Z,3.00
2017-09-20T06:26:24.952Z,2.45
2017-09-20T06:31:27.816Z,3.20
2017-09-20T06:33:57.368Z,2.50
2017-09-20T06:36:25.679Z,2.58
2017-09-20T06:38:54.973Z,3.12
2017-09-20T06:41:24.061Z,2.08
2017-09-20T06:43:52.424Z,1.98
2017-09-20T06:46:20.700Z,3.42
2017-09-20T06:48:48.977Z,3.17
2017-09-20T06:51:20.574Z,3.22
2017-09-20T06:56:27.536Z,3.00
2017-09-20T06:58:56.070Z,2.50
2017-09-20T07:04:00.450Z,4.95
2017-09-20T07:06:34.940Z,4.30
2017-09-20T07:09:03.955Z,3.17
2017-09-20T07:11:33.271Z,2.85
2017-09-20T07:14:01.655Z,5.20
2017-09-20T07:16:30.747Z,3.45
2017-09-20T07:18:59.936Z,3.95
2017-09-20T07:21:30.373Z,3.20
2017-09-20T07:24:02.420Z,3.05
2017-09-20T07:26:33.534Z,4.15
2017-09-20T07:29:05.070Z,3.83
2017-09-20T07:31:37.267Z,4.37
2017-09-20T07:47:45.130Z,3.12
2017-09-20T07:53:02.062Z,3.85
2017-09-20T08:06:58.646Z,3.35
2017-09-20T08:09:29.537Z,4.05
2017-09-20T08:12:04.158Z,3.95
2017-09-20T08:14:33.489Z,4.10
2017-09-20T08:17:05.844Z,3.30
2017-09-20T08:19:39.695Z,3.00
2017-09-20T08:22:08.331Z,4.22
2017-09-20T08:24:38.305Z,4.18
2017-09-20T08:27:11.227Z,5.15
2017-09-20T08:29:42.963Z,3.03
2017-09-20T08:32:14.021Z,3.35
2017-09-20T08:47:37.471Z,4.45
2017-09-20T08:50:07.320Z,3.62
2017-09-20T08:52:35.848Z,2.33
2017-09-20T08:55:08.889Z,4.60
2017-09-20T09:00:15.109Z,3.15
2017-09-20T09:02:51.915Z,3.78
2017-09-20T09:05:22.845Z,2.15
2017-09-20T09:07:53.117Z,2.65
2017-09-20T09:10:26.922Z,2.95
2017-09-20T09:13:01.347Z,1.98
2017-09-20T09:15:30.254Z,2.20
2017-09-20T09:18:01.387Z,4.30
2017-09-20T09:20:30.938Z,3.45
2017-09-20T09:22:59.306Z,2.65
2017-09-20T09:25:28.533Z,1.90
2017-09-20T09:27:57.006Z,2.75
2017-09-20T09:30:25.455Z,2.10
2017-09-20T09:33:01.279Z,3.87
2017-09-20T09:35:30.836Z,1.62
2017-09-20T09:38:00.514Z,2.03
2017-09-20T09:40:32.957Z,2.42
2017-09-20T09:43:14.811Z,3.45
2017-09-20T09:45:46.841Z,1.70
2017-09-20T09:48:21.195Z,1.80
2017-09-20T09:51:41.318Z,1.60
2017-09-20T10:22:39.399Z,2.20
2017-09-20T10:28:09.009Z,2.78
2017-09-20T11:46:45.862Z,2.00
2017-09-20T11:49:14.059Z,2.40
2017-09-20T11:51:42.275Z,1.80
2017-09-20T11:54:10.449Z,3.28
2017-09-20T11:56:39.724Z,2.08
2017-09-20T11:59:08.991Z,2.70
2017-09-20T12:01:37.285Z,3.37
2017-09-20T12:04:05.466Z,4.28
2017-09-20T12:06:33.742Z,3.42
2017-09-20T12:09:01.926Z,3.05
2017-09-20T12:11:31.409Z,5.53
2017-09-20T12:13:59.618Z,3.45
2017-09-20T12:16:28.593Z,3.40
2017-09-20T12:18:56.780Z,2.65
2017-09-20T12:21:24.981Z,2.40
2017-09-20T12:23:53.202Z,2.45
2017-09-20T12:26:21.421Z,2.37
2017-09-20T12:28:51.378Z,3.10
2017-09-20T12:31:19.608Z,4.25
2017-09-20T12:33:54.578Z,2.25
2017-09-20T12:39:45.698Z,2.60
2017-09-20T12:42:53.715Z,2.65
2017-09-20T12:45:25.961Z,2.05
2017-09-20T12:51:06.450Z,3.83
2017-09-20T13:50:54.618Z,4.97
2017-09-20T14:15:07.305Z,2.17
2017-09-20T14:17:35.586Z,4.12
2017-09-20T14:20:03.852Z,2.47
2017-09-20T14:22:32.493Z,3.05
2017-09-20T14:25:00.720Z,4.25
2017-09-20T14:27:35.945Z,2.42
2017-09-20T14:30:15.595Z,3.45
2017-09-20T14:36:15.643Z,5.32
2017-09-20T14:38:45.038Z,3.33
2017-09-20T14:41:13.364Z,3.80
2017-09-20T14:43:41.692Z,5.72
2017-09-20T14:46:09.940Z,5.03
2017-09-20T14:48:38.188Z,3.75
2017-09-20T14:51:06.628Z,4.40
2017-09-20T14:53:34.875Z,3.75
2017-09-20T14:56:03.141Z,3.70
2017-09-20T14:58:31.930Z,4.18
2017-09-20T15:01:00.203Z,3.75
2017-09-20T15:03:28.436Z,5.00
2017-09-20T15:05:57.538Z,3.95
2017-09-20T15:08:26.643Z,3.40
2017-09-20T15:10:54.870Z,4.50
2017-09-20T15:13:23.104Z,3.65
2017-09-20T15:15:51.303Z,4.25
2017-09-20T15:18:19.576Z,3.47
2017-09-20T15:20:49.419Z,5.00
2017-09-20T15:23:19.279Z,5.43
2017-09-20T15:25:47.490Z,3.28
2017-09-20T15:28:15.688Z,4.07
2017-09-20T15:30:44.708Z,5.85
2017-09-20T15:33:12.968Z,3.17
2017-09-20T15:35:42.036Z,3.47
2017-09-20T15:38:10.312Z,3.50
2017-09-20T15:40:38.553Z,2.72
2017-09-20T15:43:06.841Z,3.80
2017-09-20T15:45:35.122Z,3.40
2017-09-20T15:48:03.411Z,3.20
2017-09-20T15:50:36.173Z,3.60
2017-09-20T15:53:10.857Z,3.12
2017-09-20T15:55:39.601Z,3.42
2017-09-20T15:58:08.564Z,3.00
2017-09-20T16:00:37.784Z,2.80
2017-09-20T16:03:06.104Z,3.50
2017-09-20T16:05:34.713Z,3.28
2017-09-20T16:08:03.017Z,2.97
2017-09-20T16:10:32.155Z,2.87
2017-09-20T16:13:00.392Z,2.72
2017-09-20T16:15:28.666Z,2.95
2017-09-20T16:17:57.385Z,3.60
2017-09-20T16:20:27.415Z,5.00
2017-09-20T16:22:55.723Z,3.42
2017-09-20T16:25:39.197Z,3.25
2017-09-20T16:28:13.181Z,2.87
2017-09-20T16:30:41.476Z,4.05
2017-09-20T16:33:10.713Z,2.95
2017-09-20T16:35:39.007Z,2.80
2017-09-20T16:38:07.235Z,7.22
2017-09-20T16:40:35.486Z,5.65
2017-09-20T16:43:05.012Z,3.35
2017-09-20T16:45:34.014Z,3.20
2017-09-20T16:48:03.004Z,3.15
2017-09-20T16:50:32.007Z,3.28
2017-09-20T16:53:00.324Z,3.30
2017-09-20T16:55:28.814Z,2.45
2017-09-20T16:57:57.496Z,2.92
2017-09-20T17:00:25.775Z,2.58
2017-09-20T17:02:54.242Z,3.00
2017-09-20T17:05:22.699Z,3.75
2017-09-20T17:07:51.063Z,3.25
2017-09-20T17:10:20.931Z,3.08
2017-09-20T17:12:50.075Z,4.45
2017-09-20T17:15:38.508Z,2.80
2017-09-20T17:18:16.596Z,2.90
2017-09-20T17:20:48.343Z,3.00
2017-09-20T17:23:16.771Z,2.53
2017-09-20T17:25:47.194Z,3.15
2017-09-20T17:28:17.291Z,3.10
2017-09-20T17:30:45.612Z,3.05
2017-09-20T17:33:14.115Z,3.05
2017-09-20T17:35:43.185Z,3.25
2017-09-20T17:38:15.150Z,3.55
2017-09-20T17:40:44.206Z,3.33
2017-09-20T17:43:13.678Z,5.10
2017-09-20T17:45:42.835Z,2.92
2017-09-20T17:48:11.100Z,3.67
2017-09-20T17:50:39.503Z,2.67
2017-09-20T17:53:08.240Z,5.10
2017-09-20T17:55:37.400Z,5.22
2017-09-20T17:58:07.646Z,2.95
2017-09-20T18:00:37.763Z,3.83
2017-09-20T18:03:06.924Z,3.45
2017-09-20T18:05:35.178Z,3.45
2017-09-20T18:08:03.425Z,3.22
2017-09-20T18:10:33.254Z,3.58
2017-09-20T18:13:02.414Z,2.70
2017-09-20T18:15:31.427Z,3.70
2017-09-20T18:18:00.057Z,3.15
2017-09-20T18:20:29.738Z,4.00
2017-09-20T18:22:58.130Z,3.12
2017-09-20T18:25:26.398Z,4.10
2017-09-20T18:27:55.534Z,3.47
2017-09-20T18:30:24.407Z,3.72
2017-09-20T18:32:53.215Z,4.10
2017-09-20T18:35:22.853Z,3.62
2017-09-20T18:37:51.119Z,3.50
2017-09-20T18:40:20.159Z,4.18
2017-09-20T18:42:49.070Z,4.32
2017-09-20T18:45:17.360Z,4.87
2017-09-20T18:47:45.607Z,3.97
2017-09-20T18:50:13.885Z,4.00
2017-09-20T18:52:42.367Z,4.90
2017-09-20T18:55:14.925Z,5.97
2017-09-20T18:57:43.459Z,4.43
2017-09-20T19:00:16.873Z,5.10
2017-09-20T19:02:45.317Z,5.85
2017-09-20T19:05:13.544Z,4.50
2017-09-20T19:07:41.990Z,4.00
2017-09-20T19:10:12.133Z,5.35
2017-09-20T19:12:40.360Z,4.35
2017-09-20T19:15:08.650Z,4.05
2017-09-20T19:17:36.986Z,5.22
2017-09-20T19:20:05.226Z,6.53
2017-09-20T19:22:33.503Z,5.07
2017-09-20T19:25:01.791Z,5.43
2017-09-20T19:27:30.011Z,4.80
2017-09-20T19:29:59.045Z,4.90
2017-09-20T19:32:27.309Z,4.75
2017-09-20T19:34:55.542Z,5.50
2017-09-20T19:37:23.842Z,5.90
2017-09-20T19:39:52.165Z,5.43
2017-09-20T19:42:21.913Z,4.25
2017-09-20T19:44:50.160Z,4.82
2017-09-20T19:47:19.193Z,6.10
2017-09-20T19:49:47.432Z,6.20
2017-09-20T19:52:15.692Z,5.28
2017-09-20T19:54:43.980Z,5.95
2017-09-20T19:57:12.204Z,5.32
2017-09-20T19:59:41.240Z,8.23
2017-09-20T20:02:09.595Z,5.78
2017-09-20T20:04:37.897Z,6.25
2017-09-20T20:07:06.766Z,5.07
2017-09-20T20:09:34.987Z,6.05
2017-09-20T20:12:03.183Z,5.22
2017-09-20T20:14:32.182Z,5.10
2017-09-20T20:17:00.461Z,5.60
2017-09-20T20:19:28.668Z,6.18
2017-09-20T20:21:56.960Z,5.68
2017-09-20T20:24:25.234Z,5.75
2017-09-20T20:26:53.477Z,6.78
2017-09-20T20:29:21.739Z,5.30
2017-09-20T20:31:49.981Z,5.43
2017-09-20T20:34:18.805Z,5.40
2017-09-20T20:36:47.081Z,5.07
2017-09-20T20:39:15.989Z,5.95
2017-09-20T20:41:45.063Z,4.43
2017-09-20T20:44:13.312Z,4.82
2017-09-20T20:46:41.580Z,5.05
2017-09-20T20:49:10.934Z,4.62
2017-09-20T20:51:39.141Z,5.70
2017-09-20T20:54:08.641Z,5.95
2017-09-20T20:56:37.981Z,4.70
2017-09-20T20:59:07.047Z,4.95
2017-09-20T21:01:36.087Z,5.10
2017-09-20T21:04:06.502Z,5.03
2017-09-20T21:06:34.889Z,6.65
2017-09-20T21:09:03.188Z,5.40
2017-09-20T21:11:31.520Z,5.75
2017-09-20T21:14:02.130Z,5.95
2017-09-20T21:16:30.476Z,4.53
2017-09-20T21:18:59.695Z,6.32
2017-09-20T21:21:28.800Z,6.20
2017-09-20T21:24:00.873Z,6.57
2017-09-20T21:26:30.297Z,6.62
2017-09-20T21:29:00.213Z,5.93
2017-09-20T21:31:28.672Z,6.30
2017-09-20T21:33:58.222Z,6.82
2017-09-20T21:36:26.490Z,6.32
2017-09-20T21:38:54.834Z,6.05
2017-09-20T21:41:24.657Z,6.40
2017-09-20T21:43:54.784Z,6.18
2017-09-20T21:46:23.312Z,6.55
2017-09-20T21:48:52.383Z,6.20
2017-09-20T21:51:20.639Z,7.00
2017-09-20T21:53:48.869Z,6.25
2017-09-20T21:56:17.163Z,6.90
2017-09-20T21:58:46.081Z,7.62
2017-09-20T22:01:14.397Z,6.57
2017-09-20T22:03:42.612Z,6.85
2017-09-20T22:06:11.748Z,6.35
2017-09-20T22:08:39.991Z,6.57
2017-09-20T22:11:10.226Z,6.90
2017-09-20T22:13:38.518Z,6.32
2017-09-20T22:16:24.782Z,6.62
2017-09-20T22:19:11.782Z,7.30
2017-09-20T22:21:58.534Z,7.20
2017-09-20T22:24:44.471Z,6.97
2017-09-20T22:27:13.183Z,7.75
2017-09-20T22:29:42.192Z,7.22
2017-09-20T22:32:11.503Z,4.90
2017-09-20T22:34:40.427Z,7.37
2017-09-20T22:37:08.658Z,7.30
2017-09-20T22:39:38.309Z,7.00
2017-09-20T22:42:06.553Z,6.68
2017-09-20T22:44:35.581Z,7.40
2017-09-20T22:47:03.790Z,7.07
2017-09-20T22:52:06.753Z,7.95
2017-09-20T22:54:35.354Z,7.62
2017-09-20T22:57:04.727Z,8.00
2017-09-20T22:59:32.937Z,8.13
2017-09-20T23:02:01.964Z,8.38
2017-09-20T23:04:30.205Z,7.95
2017-09-20T23:06:58.486Z,7.57
2017-09-20T23:09:27.601Z,8.25
2017-09-20T23:11:57.152Z,7.43
2017-09-20T23:14:26.045Z,7.18
2017-09-20T23:16:54.280Z,8.13
2017-09-20T23:19:22.578Z,8.20
2017-09-20T23:21:50.791Z,8.55
2017-09-20T23:24:20.960Z,8.20
2017-09-20T23:26:50.244Z,8.80
2017-09-20T23:29:18.469Z,8.65
2017-09-20T23:31:47.163Z,8.20
2017-09-20T23:34:15.384Z,7.47
2017-09-20T23:36:44.399Z,8.75
2017-09-20T23:39:12.614Z,8.52
2017-09-20T23:41:44.029Z,9.85
2017-09-20T23:44:12.292Z,8.45
2017-09-20T23:46:41.087Z,7.43
2017-09-20T23:49:11.300Z,8.25
2017-09-20T23:51:39.592Z,8.38
2017-09-20T23:54:07.852Z,8.30
2017-09-20T23:56:36.389Z,8.18
2017-09-20T23:59:04.682Z,9.07
